Time;durP1;ratioP1;P1;durP2;ratioP2;P2;SDS_P1;SDS_P2;PMS_P1;PMS_P2;Temp;Humidity;BMP_temperature;BMP_pressure;BME280_temperature;BME280_humidity;BME280_pressure;Samples;Min_cycle;Max_cycle;Signal;HPM_P1;HPM_P2
2021/10/12 04:01:04;;;;;;;30.93;25.70;;;11.20;99.90;;;;;;6222402;22;20461;-66
2021/10/12 04:03:31;;;;;;;31.40;25.80;;;11.20;99.90;;;;;;6249458;23;20417;-67
2021/10/12 04:05:58;;;;;;;27.90;24.57;;;11.20;99.90;;;;;;6249571;23;20417;-66
2021/10/12 04:08:25;;;;;;;33.10;24.33;;;11.30;99.90;;;;;;6249317;23;20407;-66
2021/10/12 04:10:53;;;;;;;28.60;23.70;;;11.30;99.90;;;;;;6250584;22;20434;-66
2021/10/12 04:13:20;;;;;;;29.20;23.50;;;11.30;99.90;;;;;;6251007;23;20395;-67
2021/10/12 04:15:46;;;;;;;31.50;22.97;;;11.30;99.90;;;;;;6257941;23;20418;-67
2021/10/12 04:18:14;;;;;;;28.70;24.73;;;11.30;99.90;;;;;;6249536;23;20433;-66
2021/10/12 04:20:41;;;;;;;34.87;25.50;;;11.30;99.90;;;;;;6248963;22;20427;-66
2021/10/12 04:23:09;;;;;;;27.53;23.13;;;11.30;99.90;;;;;;6248870;23;20411;-66
2021/10/12 04:25:37;;;;;;;29.43;24.83;;;11.30;99.90;;;;;;6249040;23;20416;-66
2021/10/12 04:28:10;;;;;;;30.77;24.60;;;11.30;99.90;;;;;;6249050;23;20410;-67
2021/10/12 04:30:37;;;;;;;33.50;25.23;;;11.30;99.90;;;;;;6249285;22;20489;-66
2021/10/12 04:33:04;;;;;;;34.67;25.30;;;11.30;99.90;;;;;;6249776;23;20402;-66
2021/10/12 04:35:32;;;;;;;30.53;24.90;;;11.30;99.90;;;;;;6249967;23;20895;-66
2021/10/12 04:37:58;;;;;;;38.53;24.60;;;11.40;99.90;;;;;;6249271;23;20410;-66
2021/10/12 04:40:25;;;;;;;34.33;26.00;;;11.30;99.90;;;;;;6249731;22;20414;-67
2021/10/12 04:42:52;;;;;;;30.90;24.03;;;11.20;99.90;;;;;;6249243;23;20434;-66
2021/10/12 04:45:19;;;;;;;32.57;25.97;;;11.20;99.90;;;;;;6249609;23;20411;-67
2021/10/12 04:47:46;;;;;;;35.60;25.10;;;11.20;99.90;;;;;;6249110;23;20735;-67
2021/10/12 04:50:13;;;;;;;37.53;26.10;;;11.10;99.90;;;;;;6248824;22;20906;-67
2021/10/12 04:52:43;;;;;;;38.30;25.20;;;11.10;99.90;;;;;;6249107;23;20411;-66
2021/10/12 04:55:10;;;;;;;32.73;25.20;;;11.10;99.90;;;;;;6252268;23;20418;-68
2021/10/12 04:57:37;;;;;;;36.23;25.77;;;11.10;99.90;;;;;;6252940;23;20940;-67
2021/10/12 05:00:06;;;;;;;32.60;24.77;;;11.10;99.90;;;;;;6252592;23;20477;-66
2021/10/12 05:02:33;;;;;;;34.30;25.07;;;11.10;99.90;;;;;;6224618;23;20434;-66
2021/10/12 05:04:59;;;;;;;36.50;24.80;;;11.10;99.90;;;;;;6249520;23;20883;-66
2021/10/12 05:07:26;;;;;;;33.93;25.73;;;11.00;99.90;;;;;;6249276;23;20923;-66
2021/10/12 05:09:54;;;;;;;36.73;28.20;;;11.00;99.90;;;;;;6249568;23;20418;-66
2021/10/12 05:12:21;;;;;;;30.00;24.63;;;11.00;99.90;;;;;;6248692;22;20441;-67
2021/10/12 05:14:47;;;;;;;32.60;25.53;;;11.00;99.90;;;;;;6248896;23;20720;-66
2021/10/12 05:17:21;;;;;;;32.93;27.37;;;11.00;99.90;;;;;;6248872;23;20410;-66
2021/10/12 05:19:47;;;;;;;32.80;27.07;;;11.00;99.90;;;;;;6250012;23;20438;-67
2021/10/12 05:22:14;;;;;;;38.47;27.90;;;10.90;99.90;;;;;;6248527;22;20427;-66
2021/10/12 05:24:41;;;;;;;42.93;28.40;;;10.90;99.90;;;;;;6248089;23;20422;-66
2021/10/12 05:27:09;;;;;;;40.50;31.20;;;10.90;99.90;;;;;;6248119;23;20411;-65
2021/10/12 05:29:37;;;;;;;41.53;30.10;;;10.80;99.90;;;;;;6247969;23;20733;-67
2021/10/12 05:32:05;;;;;;;50.87;29.73;;;10.90;99.90;;;;;;6251811;22;20446;-68
2021/10/12 05:34:32;;;;;;;46.60;31.00;;;10.90;99.90;;;;;;6248406;23;20446;-67
2021/10/12 05:36:59;;;;;;;46.73;32.53;;;10.80;99.90;;;;;;6248568;23;20418;-67
2021/10/12 05:39:28;;;;;;;44.10;31.00;;;10.80;99.90;;;;;;6248507;23;20415;-67
2021/10/12 05:41:55;;;;;;;50.00;32.37;;;10.80;99.90;;;;;;6248649;22;20434;-67
2021/10/12 05:44:23;;;;;;;46.03;32.13;;;10.90;99.90;;;;;;6248264;23;20399;-67
2021/10/12 05:46:51;;;;;;;46.17;33.17;;;10.90;99.90;;;;;;6252421;23;20422;-67
2021/10/12 05:49:19;;;;;;;46.10;31.90;;;10.90;99.90;;;;;;6265348;23;20403;-67
2021/10/12 05:51:47;;;;;;;48.67;33.10;;;10.80;99.90;;;;;;6248702;22;20513;-67
2021/10/12 05:54:16;;;;;;;40.90;31.10;;;10.80;99.90;;;;;;6247768;23;20460;-67
2021/10/12 05:56:46;;;;;;;43.37;30.37;;;10.90;99.90;;;;;;6248866;23;20737;-67
2021/10/12 05:59:13;;;;;;;46.83;32.50;;;10.90;99.90;;;;;;6249359;23;20407;-67
2021/10/12 06:01:41;;;;;;;44.83;29.60;;;10.90;99.90;;;;;;6248196;22;20438;-67
2021/10/12 06:04:08;;;;;;;42.10;30.70;;;10.90;99.90;;;;;;6249128;23;20410;-66
2021/10/12 06:06:35;;;;;;;43.27;31.40;;;10.90;99.90;;;;;;6249832;23;20407;-66
2021/10/12 06:09:02;;;;;;;42.10;30.23;;;10.90;99.90;;;;;;6248493;23;20417;-66
2021/10/12 06:11:30;;;;;;;46.53;31.27;;;10.90;99.90;;;;;;6249036;22;20998;-67
2021/10/12 06:13:57;;;;;;;42.37;31.23;;;10.90;99.90;;;;;;6248443;23;20418;-67
2021/10/12 06:16:24;;;;;;;45.70;30.13;;;10.90;99.90;;;;;;6248340;23;20411;-67
2021/10/12 06:18:52;;;;;;;38.43;28.60;;;10.80;99.90;;;;;;6247880;23;20410;-67
2021/10/12 06:21:19;;;;;;;44.70;30.73;;;10.80;99.90;;;;;;6248339;22;20454;-67
2021/10/12 06:23:45;;;;;;;41.97;29.57;;;10.80;99.90;;;;;;6248762;23;20740;-66
2021/10/12 06:26:12;;;;;;;44.63;32.17;;;10.80;99.90;;;;;;6248640;23;20411;-68
2021/10/12 06:28:39;;;;;;;42.33;29.33;;;10.80;99.90;;;;;;6247153;23;20411;-67
2021/10/12 06:31:06;;;;;;;43.20;31.87;;;10.80;99.90;;;;;;6247367;22;20758;-67
2021/10/12 06:33:33;;;;;;;46.13;30.77;;;10.90;99.90;;;;;;6248910;23;20418;-67
2021/10/12 06:36:01;;;;;;;36.43;29.03;;;10.90;99.90;;;;;;6266495;23;20414;-67
2021/10/12 06:38:29;;;;;;;42.80;29.20;;;10.90;99.90;;;;;;6269126;23;20417;-67
2021/10/12 06:40:55;;;;;;;43.53;31.00;;;10.90;99.90;;;;;;6253782;22;20476;-67
2021/10/12 06:43:22;;;;;;;42.83;28.37;;;10.90;99.90;;;;;;6249990;23;20741;-67
2021/10/12 06:45:49;;;;;;;38.00;27.57;;;11.00;99.90;;;;;;6251107;23;20414;-67
2021/10/12 06:48:15;;;;;;;38.43;27.77;;;11.00;99.90;;;;;;6249189;23;20418;-67
2021/10/12 06:50:42;;;;;;;34.30;27.40;;;11.00;99.90;;;;;;6248258;22;20786;-68
2021/10/12 06:53:10;;;;;;;42.17;27.37;;;11.00;99.90;;;;;;6247685;23;20443;-67
2021/10/12 06:55:37;;;;;;;33.13;26.63;;;11.10;99.90;;;;;;6247720;23;20915;-67
2021/10/12 06:58:05;;;;;;;36.73;27.00;;;11.10;99.90;;;;;;6247813;23;20411;-67
2021/10/12 07:00:32;;;;;;;34.33;26.57;;;11.00;99.90;;;;;;6247433;22;20815;-68
2021/10/12 07:02:59;;;;;;;37.80;26.70;;;11.00;99.90;;;;;;6247883;23;20391;-67
2021/10/12 07:05:25;;;;;;;34.63;26.43;;;11.00;99.90;;;;;;6247856;23;20410;-67
2021/10/12 07:07:52;;;;;;;36.43;24.57;;;11.00;99.90;;;;;;6248046;23;20414;-68
2021/10/12 07:10:20;;;;;;;34.37;24.90;;;11.00;99.90;;;;;;6247919;22;20418;-67
2021/10/12 07:12:48;;;;;;;39.13;27.10;;;11.10;99.90;;;;;;6250276;23;20753;-67
2021/10/12 07:15:15;;;;;;;38.53;24.97;;;11.10;99.90;;;;;;6247905;23;20505;-68
2021/10/12 07:17:41;;;;;;;31.93;24.90;;;11.10;99.90;;;;;;6247922;23;20399;-68
2021/10/12 07:20:09;;;;;;;30.10;24.70;;;11.10;99.90;;;;;;6246989;23;20411;-67
2021/10/12 07:22:36;;;;;;;34.20;24.57;;;11.10;99.90;;;;;;6247771;23;20456;-68
2021/10/12 07:25:06;;;;;;;37.27;26.37;;;11.20;99.90;;;;;;6247676;23;20407;-68
2021/10/12 07:27:35;;;;;;;28.13;22.90;;;11.20;99.90;;;;;;6247136;23;20418;-67
2021/10/12 07:30:02;;;;;;;28.90;24.27;;;11.20;99.90;;;;;;6248012;23;20735;-68
2021/10/12 07:32:29;;;;;;;30.60;23.17;;;11.20;99.90;;;;;;6247560;22;20443;-68
2021/10/12 07:34:55;;;;;;;34.60;23.60;;;11.20;99.90;;;;;;6248424;23;20421;-68
2021/10/12 07:37:22;;;;;;;31.50;23.07;;;11.30;99.90;;;;;;6248575;23;20411;-67
2021/10/12 07:39:49;;;;;;;28.40;23.10;;;11.30;99.90;;;;;;6249002;23;20395;-67
2021/10/12 07:42:15;;;;;;;29.30;23.40;;;11.30;99.90;;;;;;6247736;22;20438;-67
2021/10/12 07:44:44;;;;;;;26.40;23.50;;;11.40;99.90;;;;;;6247748;23;20418;-67
2021/10/12 07:47:11;;;;;;;32.90;25.80;;;11.40;99.90;;;;;;6247471;23;20410;-68
2021/10/12 07:49:38;;;;;;;31.00;23.20;;;11.40;99.90;;;;;;6246564;23;20903;-67
2021/10/12 07:52:07;;;;;;;28.87;23.57;;;11.60;99.90;;;;;;6246998;22;20521;-67
2021/10/12 07:54:45;;;;;;;33.27;24.10;;;11.80;99.90;;;;;;6247441;23;20411;-67
2021/10/12 07:57:12;;;;;;;26.90;21.97;;;11.80;99.90;;;;;;6247738;23;20478;-66
2021/10/12 07:59:39;;;;;;;26.80;21.50;;;12.00;99.90;;;;;;6247471;23;20417;-66
2021/10/12 08:02:11;;;;;;;28.00;22.20;;;12.00;99.90;;;;;;6247360;22;20435;-67
2021/10/12 08:04:38;;;;;;;28.70;21.83;;;12.20;99.90;;;;;;6248431;23;20395;-66
2021/10/12 08:07:05;;;;;;;26.73;21.23;;;12.40;99.90;;;;;;6247872;23;20411;-67
2021/10/12 08:09:32;;;;;;;29.20;22.03;;;12.50;99.90;;;;;;6247633;23;20411;-67
2021/10/12 08:11:58;;;;;;;25.97;20.23;;;12.60;99.90;;;;;;6262725;22;20564;-68
2021/10/12 08:14:26;;;;;;;27.37;23.20;;;12.70;99.90;;;;;;6267522;23;20493;-68
2021/10/12 08:16:52;;;;;;;27.73;23.93;;;12.60;99.90;;;;;;6255159;23;20434;-68
2021/10/12 08:19:21;;;;;;;26.63;22.67;;;12.60;99.90;;;;;;6251304;23;20417;-67
2021/10/12 08:21:47;;;;;;;25.10;21.90;;;12.60;99.90;;;;;;6249645;22;20426;-67
2021/10/12 08:24:17;;;;;;;30.37;21.53;;;12.50;99.90;;;;;;6248013;23;20895;-67
2021/10/12 08:26:44;;;;;;;29.00;20.20;;;12.30;99.90;;;;;;6249483;23;20421;-67
2021/10/12 08:29:11;;;;;;;32.33;21.13;;;12.30;99.90;;;;;;6249154;23;20410;-67
2021/10/12 08:31:38;;;;;;;29.33;20.43;;;12.30;99.90;;;;;;6248754;22;20438;-67
2021/10/12 08:34:04;;;;;;;22.83;19.43;;;12.30;99.90;;;;;;6248538;23;20418;-67
2021/10/12 08:36:33;;;;;;;22.67;20.27;;;12.30;99.90;;;;;;6249292;23;20411;-67
2021/10/12 08:38:59;;;;;;;23.40;20.60;;;12.40;99.90;;;;;;6249288;23;20418;-67
2021/10/12 08:41:30;;;;;;;26.67;20.83;;;12.40;99.90;;;;;;6248994;22;20430;-67
2021/10/12 08:43:58;;;;;;;21.17;18.60;;;12.40;99.90;;;;;;6248870;23;20395;-67
2021/10/12 08:46:27;;;;;;;25.50;19.70;;;12.30;99.90;;;;;;6249280;23;20744;-67
2021/10/12 08:48:55;;;;;;;23.13;18.80;;;12.30;99.90;;;;;;6249206;23;20446;-67
2021/10/12 08:51:22;;;;;;;23.13;18.80;;;12.40;99.90;;;;;;6248785;22;20793;-67
2021/10/12 08:53:50;;;;;;;23.40;17.87;;;12.40;99.90;;;;;;6248991;23;20430;-67
2021/10/12 08:56:17;;;;;;;22.40;18.23;;;12.50;99.90;;;;;;6250448;23;20410;-67
2021/10/12 08:58:44;;;;;;;19.50;16.43;;;12.60;99.90;;;;;;6249301;23;20919;-67
2021/10/12 09:01:13;;;;;;;23.50;18.00;;;12.70;99.90;;;;;;6248942;22;20461;-68
2021/10/12 09:03:48;;;;;;;19.03;17.00;;;12.80;99.90;;;;;;6249166;23;20407;-68
2021/10/12 09:06:22;;;;;;;17.87;16.13;;;12.80;99.90;;;;;;6249249;23;20426;-68
2021/10/12 09:08:57;;;;;;;16.70;14.87;;;13.00;99.90;;;;;;6252309;23;20398;-68
2021/10/12 09:11:26;;;;;;;17.23;15.43;;;13.00;99.90;;;;;;6249135;22;20517;-68
2021/10/12 09:13:59;;;;;;;15.67;13.17;;;13.20;99.90;;;;;;6248656;23;20435;-68
2021/10/12 09:16:32;;;;;;;14.63;13.13;;;13.30;99.90;;;;;;6248611;23;20856;-68
2021/10/12 09:19:01;;;;;;;14.90;12.57;;;13.50;99.90;;;;;;6249415;23;20417;-68
2021/10/12 09:21:29;;;;;;;15.63;12.00;;;13.60;99.90;;;;;;6248898;22;20430;-69
2021/10/12 09:24:04;;;;;;;13.47;11.67;;;13.60;99.90;;;;;;6248222;23;20414;-68
2021/10/12 09:26:34;;;;;;;16.57;13.63;;;13.60;99.90;;;;;;6248349;23;20401;-68
2021/10/12 09:29:03;;;;;;;15.47;12.60;;;13.60;99.90;;;;;;6248916;23;20918;-70
2021/10/12 09:31:34;;;;;;;13.60;12.30;;;13.50;99.90;;;;;;6248286;22;20523;-69
2021/10/12 09:34:04;;;;;;;15.40;13.63;;;13.50;99.90;;;;;;6248225;23;20434;-69
2021/10/12 09:36:32;;;;;;;15.57;13.03;;;13.40;99.90;;;;;;6248479;23;20435;-68
2021/10/12 09:39:01;;;;;;;16.70;12.63;;;13.20;99.90;;;;;;6248015;23;20410;-69
2021/10/12 09:41:29;;;;;;;15.70;12.93;;;13.00;99.90;;;;;;6248670;22;20430;-69
2021/10/12 09:44:08;;;;;;;15.27;13.47;;;13.00;99.90;;;;;;6248307;23;20445;-69
2021/10/12 09:46:38;;;;;;;19.47;13.47;;;13.00;99.90;;;;;;6248695;23;20401;-69
2021/10/12 09:49:13;;;;;;;16.87;15.07;;;12.90;99.90;;;;;;6248769;23;20417;-69
2021/10/12 09:51:43;;;;;;;16.90;15.10;;;12.80;99.90;;;;;;6248870;22;20430;-68
2021/10/12 09:54:22;;;;;;;17.07;15.10;;;12.70;99.90;;;;;;6249009;23;20419;-68
2021/10/12 09:56:49;;;;;;;21.20;16.77;;;12.70;99.90;;;;;;6248579;23;20465;-68
2021/10/12 09:59:16;;;;;;;17.17;15.37;;;12.70;99.90;;;;;;6249455;23;20411;-68
2021/10/12 10:01:46;;;;;;;18.30;16.50;;;12.70;99.90;;;;;;6248037;22;20442;-69
2021/10/12 10:04:16;;;;;;;19.60;15.40;;;12.70;99.90;;;;;;6248101;23;20391;-69
2021/10/12 10:06:45;;;;;;;18.60;14.60;;;12.80;99.90;;;;;;6249587;23;20810;-68
2021/10/12 10:09:13;;;;;;;18.20;14.50;;;12.80;99.90;;;;;;6248311;23;20418;-68
2021/10/12 10:11:43;;;;;;;16.30;14.70;;;12.90;99.90;;;;;;6248326;22;20437;-69
2021/10/12 10:14:12;;;;;;;18.20;14.27;;;13.00;99.90;;;;;;6248382;23;20441;-68
2021/10/12 10:16:40;;;;;;;18.83;12.70;;;13.10;99.90;;;;;;6248236;23;20411;-70
2021/10/12 10:19:09;;;;;;;13.33;11.93;;;13.20;99.90;;;;;;6248384;23;20411;-69
2021/10/12 10:21:41;;;;;;;13.17;11.60;;;13.10;99.90;;;;;;6248591;22;20826;-69
2021/10/12 10:24:12;;;;;;;13.80;12.13;;;13.20;99.90;;;;;;6260512;23;20433;-69
2021/10/12 10:26:41;;;;;;;16.60;11.77;;;13.20;99.90;;;;;;6263042;23;20398;-68
2021/10/12 10:29:23;;;;;;;16.53;12.90;;;13.20;99.90;;;;;;6250693;23;20415;-69
2021/10/12 10:31:53;;;;;;;16.30;13.13;;;13.30;99.90;;;;;;6250311;22;20438;-68
2021/10/12 10:34:41;;;;;;;14.63;11.97;;;13.40;99.90;;;;;;6248959;23;20434;-69
2021/10/12 10:37:29;;;;;;;14.13;11.47;;;13.60;99.90;;;;;;6239610;23;20486;-69
2021/10/12 10:39:59;;;;;;;14.30;9.97;;;13.80;99.90;;;;;;6248454;23;20391;-69
2021/10/12 10:42:52;;;;;;;11.20;10.20;;;14.00;99.90;;;;;;6248887;22;20429;-70
2021/10/12 10:45:19;;;;;;;14.17;9.37;;;14.10;99.90;;;;;;6219870;23;20411;-69
2021/10/12 10:47:50;;;;;;;11.20;10.10;;;14.10;99.90;;;;;;6249016;23;20712;-69
2021/10/12 10:50:19;;;;;;;13.40;9.37;;;14.10;99.90;;;;;;6254867;22;20411;-69
2021/10/12 10:52:47;;;;;;;11.30;9.30;;;14.10;99.90;;;;;;6251648;23;20750;-69
2021/10/12 10:55:20;;;;;;;15.23;9.43;;;14.00;99.90;;;;;;6251139;23;20429;-69
2021/10/12 10:58:09;;;;;;;9.70;8.70;;;13.90;99.90;;;;;;6249850;23;20414;-69
2021/10/12 11:00:44;;;;;;;12.13;9.50;;;13.90;99.90;;;;;;6248586;22;20438;-69
2021/10/12 11:03:35;;;;;;;11.50;8.83;;;13.90;99.90;;;;;;6247971;23;20425;-69
2021/10/12 11:06:04;;;;;;;13.23;10.00;;;13.90;99.90;;;;;;6248509;23;20395;-69
2021/10/12 11:08:33;;;;;;;10.10;9.10;;;13.80;99.90;;;;;;6248087;23;20415;-69
2021/10/12 11:11:01;;;;;;;10.83;9.67;;;13.60;99.90;;;;;;6247887;22;20431;-69
2021/10/12 11:13:35;;;;;;;16.13;10.23;;;13.60;99.90;;;;;;6249000;23;20435;-68
2021/10/12 11:16:03;;;;;;;9.73;8.83;;;13.50;99.90;;;;;;6248333;23;20402;-69
2021/10/12 11:18:30;;;;;;;10.73;9.23;;;13.60;99.90;;;;;;6247557;23;20414;-69
2021/10/12 11:20:59;;;;;;;12.07;9.97;;;13.60;99.90;;;;;;6247533;22;20942;-69
2021/10/12 11:23:29;;;;;;;11.10;8.10;;;13.70;99.90;;;;;;6247721;23;20413;-70
2021/10/12 11:25:58;;;;;;;11.37;8.70;;;13.70;99.90;;;;;;6246713;23;20494;-68
2021/10/12 11:28:26;;;;;;;10.37;7.27;;;13.70;99.90;;;;;;6246772;23;20410;-69
2021/10/12 11:30:54;;;;;;;9.93;6.80;;;13.70;99.90;;;;;;6247450;22;20430;-69
2021/10/12 11:33:35;;;;;;;8.93;6.43;;;13.70;99.90;;;;;;6247502;23;20441;-69
2021/10/12 11:36:04;;;;;;;12.27;7.60;;;13.90;99.90;;;;;;6247738;23;20415;-69
2021/10/12 11:38:32;;;;;;;11.23;6.40;;;14.10;99.90;;;;;;6247756;23;20415;-69
2021/10/12 11:40:59;;;;;;;13.97;7.30;;;14.20;99.90;;;;;;6247560;22;20434;-69
2021/10/12 11:43:33;;;;;;;11.00;6.70;;;14.20;99.90;;;;;;6247679;23;20414;-69
2021/10/12 11:46:02;;;;;;;10.13;7.77;;;14.20;99.90;;;;;;6247637;23;20410;-70
2021/10/12 11:48:34;;;;;;;8.93;6.43;;;14.10;99.90;;;;;;6247606;23;20434;-70
2021/10/12 11:51:17;;;;;;;9.63;6.23;;;14.10;99.90;;;;;;6247099;22;20955;-69
2021/10/12 11:53:45;;;;;;;7.90;6.80;;;14.00;99.90;;;;;;6247655;23;20481;-68
2021/10/12 11:56:13;;;;;;;19.57;7.40;;;14.10;99.90;;;;;;6247635;23;20417;-69
2021/10/12 11:58:41;;;;;;;10.73;7.00;;;14.50;99.90;;;;;;6249737;23;20415;-69
2021/10/12 12:01:11;;;;;;;11.97;7.00;;;15.00;99.90;;;;;;6248568;22;20439;-69
2021/10/12 12:03:40;;;;;;;9.67;6.47;;;15.40;99.90;;;;;;6249245;23;20407;-69
2021/10/12 12:06:08;;;;;;;13.10;7.40;;;16.00;99.90;;;;;;6249671;23;20411;-69
2021/10/12 12:08:40;;;;;;;5.90;5.30;;;16.40;99.90;;;;;;6249507;23;20472;-69
2021/10/12 12:11:08;;;;;;;9.20;5.70;;;16.80;99.90;;;;;;6249884;22;20453;-69
2021/10/12 12:13:36;;;;;;;6.33;5.27;;;17.00;99.90;;;;;;6253597;23;20434;-69
2021/10/12 12:16:03;;;;;;;10.20;5.10;;;17.00;99.90;;;;;;6249862;23;20411;-69
2021/10/12 12:18:40;;;;;;;5.00;4.50;;;17.00;99.90;;;;;;6249249;23;20417;-69
2021/10/12 12:21:07;;;;;;;4.93;4.13;;;17.20;99.90;;;;;;6249190;22;20469;-70
2021/10/12 12:23:38;;;;;;;5.20;4.40;;;17.10;99.90;;;;;;6249280;23;20413;-69
2021/10/12 12:26:07;;;;;;;5.70;4.20;;;17.10;99.90;;;;;;6249161;23;20418;-69
2021/10/12 12:28:34;;;;;;;5.77;4.50;;;17.10;99.90;;;;;;6250077;23;20417;-69
2021/10/12 12:31:21;;;;;;;6.97;4.47;;;17.00;99.90;;;;;;6249493;22;20438;-70
2021/10/12 12:33:51;;;;;;;6.20;5.23;;;16.80;99.90;;;;;;6248766;23;20419;-70
2021/10/12 12:36:19;;;;;;;8.43;5.67;;;16.50;99.90;;;;;;6248968;23;20422;-70
2021/10/12 12:38:46;;;;;;;8.40;5.40;;;16.20;99.90;;;;;;6249126;23;20415;-69
2021/10/12 12:41:21;;;;;;;6.40;5.73;;;16.00;99.90;;;;;;6248964;22;20753;-70
2021/10/12 12:43:58;;;;;;;9.30;6.50;;;15.80;99.90;;;;;;6249028;23;20413;-70
2021/10/12 12:46:26;;;;;;;7.23;6.63;;;15.60;99.90;;;;;;6248845;23;20465;-69
2021/10/12 12:49:06;;;;;;;11.73;8.10;;;15.40;99.90;;;;;;6248793;23;20411;-69
2021/10/12 12:51:34;;;;;;;7.83;7.03;;;15.30;99.90;;;;;;6248361;22;20931;-69
2021/10/12 12:54:01;;;;;;;10.03;7.57;;;15.10;99.90;;;;;;6249027;23;20427;-69
2021/10/12 12:56:33;;;;;;;8.80;7.67;;;15.10;99.90;;;;;;6259433;23;20407;-70
2021/10/12 12:59:06;;;;;;;9.47;6.90;;;15.00;99.90;;;;;;6261572;23;20887;-69
2021/10/12 13:01:33;;;;;;;8.70;6.70;;;15.10;99.90;;;;;;6249429;22;20939;-72
2021/10/12 13:03:59;;;;;;;8.57;6.60;;;15.30;99.90;;;;;;6249366;23;20407;-69
2021/10/12 13:06:27;;;;;;;7.47;6.37;;;15.40;99.90;;;;;;6247860;23;20900;-69
2021/10/12 13:08:57;;;;;;;7.30;6.10;;;15.30;99.90;;;;;;6248191;23;20896;-69
2021/10/12 13:11:25;;;;;;;7.93;6.77;;;15.30;99.90;;;;;;6248415;22;20470;-69
2021/10/12 13:13:52;;;;;;;7.83;6.07;;;15.30;99.90;;;;;;6248343;23;20477;-69
2021/10/12 13:16:20;;;;;;;7.57;6.83;;;15.30;99.90;;;;;;6248345;23;20422;-69
2021/10/12 13:18:46;;;;;;;10.73;7.07;;;15.10;99.90;;;;;;6248027;23;20411;-69
2021/10/12 13:21:13;;;;;;;10.70;7.50;;;15.00;99.90;;;;;;6248260;22;20435;-69
2021/10/12 13:23:41;;;;;;;12.23;9.90;;;15.10;99.90;;;;;;6248065;23;20407;-69
2021/10/12 13:26:08;;;;;;;12.50;11.10;;;15.10;99.90;;;;;;6248445;23;20411;-69
2021/10/12 13:28:35;;;;;;;12.43;11.20;;;15.20;99.90;;;;;;6251128;23;20884;-69
2021/10/12 13:31:02;;;;;;;10.20;7.57;;;15.30;99.90;;;;;;6249526;22;20431;-70
2021/10/12 13:33:30;;;;;;;10.50;8.10;;;15.30;99.90;;;;;;6253514;23;20439;-70
2021/10/12 13:35:57;;;;;;;10.77;7.40;;;15.30;99.90;;;;;;6252711;23;20410;-69
2021/10/12 13:38:25;;;;;;;6.77;6.17;;;15.10;99.90;;;;;;6249996;23;20415;-69
2021/10/12 13:40:53;;;;;;;6.20;5.60;;;14.90;99.90;;;;;;6248302;22;20754;-69
2021/10/12 13:43:19;;;;;;;9.30;6.17;;;14.70;99.90;;;;;;6249915;23;20469;-69
2021/10/12 13:45:46;;;;;;;6.97;5.83;;;14.60;99.90;;;;;;6254716;23;20426;-69
2021/10/12 13:48:13;;;;;;;15.87;6.70;;;14.60;99.90;;;;;;6247998;23;20418;-69
2021/10/12 13:50:39;;;;;;;8.20;6.30;;;14.40;99.90;;;;;;6251098;22;20758;-69
2021/10/12 13:53:06;;;;;;;9.50;5.90;;;14.30;99.90;;;;;;6248746;23;20411;-69
2021/10/12 13:55:33;;;;;;;10.23;7.00;;;14.30;99.90;;;;;;6248052;23;20410;-70
2021/10/12 13:58:02;;;;;;;8.70;6.37;;;14.20;99.90;;;;;;6249694;23;20411;-69
2021/10/12 14:00:28;;;;;;;7.50;6.33;;;14.30;99.90;;;;;;6249125;22;20514;-69
2021/10/12 14:02:55;;;;;;;5.17;4.77;;;14.30;99.90;;;;;;6248225;23;20402;-70
2021/10/12 14:05:23;;;;;;;7.77;6.03;;;14.30;99.90;;;;;;6257756;23;20526;-70
2021/10/12 14:07:50;;;;;;;6.20;5.10;;;14.30;99.90;;;;;;6248360;23;20415;-69
2021/10/12 14:10:17;;;;;;;8.10;5.97;;;14.20;99.90;;;;;;6248111;22;20926;-70
2021/10/12 14:12:44;;;;;;;11.87;5.67;;;14.20;99.90;;;;;;6247442;23;20417;-70
2021/10/12 14:15:13;;;;;;;7.17;6.20;;;14.20;99.90;;;;;;6247776;23;20444;-69
2021/10/12 14:17:40;;;;;;;8.23;6.90;;;14.20;99.90;;;;;;6249734;23;20892;-69
2021/10/12 14:20:08;;;;;;;12.17;6.83;;;14.20;99.90;;;;;;6248232;23;20427;-69
2021/10/12 14:22:35;;;;;;;10.33;7.13;;;14.10;99.90;;;;;;6248759;22;20431;-69
2021/10/12 14:25:02;;;;;;;7.13;6.30;;;14.00;99.90;;;;;;6248840;23;20497;-70
2021/10/12 14:27:29;;;;;;;7.77;6.40;;;14.00;99.90;;;;;;6249020;23;20410;-69
2021/10/12 14:30:02;;;;;;;12.17;7.03;;;13.90;99.90;;;;;;6248974;23;20422;-69
2021/10/12 14:32:31;;;;;;;13.67;6.63;;;13.70;99.90;;;;;;6250439;22;20430;-69
2021/10/12 14:34:58;;;;;;;15.77;6.57;;;13.70;99.90;;;;;;6249759;23;20430;-69
2021/10/12 14:37:27;;;;;;;9.67;6.30;;;13.70;99.90;;;;;;6248877;23;20414;-69
2021/10/12 14:39:54;;;;;;;10.30;6.80;;;13.70;99.90;;;;;;6248973;23;20410;-69
2021/10/12 14:42:20;;;;;;;7.60;7.00;;;13.70;99.90;;;;;;6248783;22;20453;-70
2021/10/12 14:44:47;;;;;;;9.07;7.07;;;13.70;99.90;;;;;;6247655;23;20408;-70
2021/10/12 14:47:14;;;;;;;12.73;7.37;;;13.70;99.90;;;;;;6248552;23;20780;-70
2021/10/12 14:49:42;;;;;;;10.47;6.50;;;13.70;99.90;;;;;;6250819;23;20411;-69
2021/10/12 14:52:09;;;;;;;6.80;6.23;;;13.70;99.90;;;;;;6258073;22;20518;-69
2021/10/12 14:54:36;;;;;;;8.20;6.67;;;13.70;99.90;;;;;;6247432;23;20434;-69
2021/10/12 14:57:03;;;;;;;7.43;6.60;;;13.60;99.90;;;;;;6246795;23;20411;-69
2021/10/12 14:59:29;;;;;;;7.40;5.80;;;13.60;99.90;;;;;;6246588;23;20411;-69
2021/10/12 15:01:57;;;;;;;8.23;6.67;;;13.70;99.90;;;;;;6247281;22;20439;-69
2021/10/12 15:04:24;;;;;;;8.93;6.47;;;13.70;99.90;;;;;;6247691;23;20406;-69
2021/10/12 15:06:52;;;;;;;9.30;6.13;;;13.50;99.90;;;;;;6247275;23;20440;-69
2021/10/12 15:09:19;;;;;;;7.23;6.50;;;13.50;99.90;;;;;;6246952;23;20497;-69
2021/10/12 15:11:46;;;;;;;8.27;6.00;;;13.50;99.90;;;;;;6248595;22;20434;-69
2021/10/12 15:14:15;;;;;;;9.17;8.20;;;13.50;99.90;;;;;;6257759;23;20426;-69
2021/10/12 15:16:44;;;;;;;7.07;6.37;;;13.50;99.90;;;;;;6253958;23;20406;-70
2021/10/12 15:19:11;;;;;;;11.03;6.47;;;13.50;99.90;;;;;;6247785;23;20418;-69
2021/10/12 15:21:40;;;;;;;8.63;6.00;;;13.40;99.90;;;;;;6246802;22;20430;-69
2021/10/12 15:24:08;;;;;;;9.13;5.87;;;13.40;99.90;;;;;;6246610;23;20406;-69
2021/10/12 15:26:35;;;;;;;7.13;5.67;;;13.40;99.90;;;;;;6246384;23;20896;-69
2021/10/12 15:29:01;;;;;;;6.27;5.47;;;13.40;99.90;;;;;;6246817;23;20411;-69
2021/10/12 15:31:28;;;;;;;7.57;5.70;;;13.30;99.90;;;;;;6248695;22;20939;-70
2021/10/12 15:33:55;;;;;;;8.93;6.30;;;13.30;99.90;;;;;;6247167;23;20857;-70
2021/10/12 15:36:22;;;;;;;9.53;6.03;;;13.20;99.90;;;;;;6248182;23;20422;-70
2021/10/12 15:39:19;;;;;;;8.47;6.63;;;13.20;99.90;;;;;;6249164;23;20745;-70
2021/10/12 15:41:48;;;;;;;6.30;5.67;;;13.20;99.90;;;;;;6248927;22;20427;-69
2021/10/12 15:44:15;;;;;;;8.80;6.37;;;13.10;99.90;;;;;;6249252;23;20410;-70
2021/10/12 15:46:43;;;;;;;9.70;6.40;;;13.00;99.90;;;;;;6249007;23;20414;-70
2021/10/12 15:49:10;;;;;;;7.73;6.23;;;13.00;99.90;;;;;;6248870;23;20414;-70
2021/10/12 15:51:37;;;;;;;6.47;5.70;;;13.00;99.90;;;;;;6248577;22;20423;-70
2021/10/12 15:54:04;;;;;;;13.97;7.07;;;12.90;99.90;;;;;;6248826;23;20454;-70
2021/10/12 15:56:32;;;;;;;7.00;6.00;;;12.90;99.90;;;;;;6248779;23;20411;-69
2021/10/12 15:58:59;;;;;;;9.63;5.77;;;12.90;99.90;;;;;;6248525;23;20465;-69
2021/10/12 16:01:26;;;;;;;9.93;5.40;;;12.80;99.90;;;;;;6248505;22;20442;-68
2021/10/12 16:03:53;;;;;;;8.03;6.63;;;12.80;99.90;;;;;;6249555;23;20895;-70
2021/10/12 16:06:19;;;;;;;7.63;5.63;;;12.70;99.90;;;;;;6248853;23;20410;-69
2021/10/12 16:08:46;;;;;;;8.53;6.30;;;12.70;99.90;;;;;;6248564;23;20899;-69
2021/10/12 16:11:15;;;;;;;11.67;5.73;;;12.70;99.90;;;;;;6248495;22;20438;-69
2021/10/12 16:13:43;;;;;;;9.10;5.23;;;12.60;99.90;;;;;;6249112;23;20789;-69
2021/10/12 16:16:10;;;;;;;6.27;4.67;;;12.60;99.90;;;;;;6248833;23;20430;-69
2021/10/12 16:21:31;;;;;;;10.77;5.50;;;12.40;99.90;;;;;;6248471;22;20417;-70
2021/10/12 16:23:58;;;;;;;6.77;5.00;;;12.30;99.90;;;;;;6248025;23;20957;-69
2021/10/12 16:26:25;;;;;;;7.40;5.30;;;12.30;99.90;;;;;;6248765;23;20469;-69
2021/10/12 16:28:53;;;;;;;8.03;5.83;;;12.20;99.90;;;;;;6248183;23;20421;-69
2021/10/12 16:31:19;;;;;;;7.90;5.07;;;12.20;99.90;;;;;;6248471;22;20430;-69
2021/10/12 16:33:46;;;;;;;6.87;4.83;;;12.20;99.90;;;;;;6248507;23;20741;-69
2021/10/12 16:36:13;;;;;;;8.87;5.93;;;12.20;99.90;;;;;;6248186;23;20441;-69
2021/10/12 16:38:40;;;;;;;11.20;6.13;;;12.20;99.90;;;;;;6248948;23;20411;-69
2021/10/12 16:41:07;;;;;;;6.93;5.63;;;12.10;99.90;;;;;;6248589;22;20749;-69
2021/10/12 16:43:34;;;;;;;11.93;6.70;;;12.10;99.90;;;;;;6248974;23;20474;-69